sensor_id;sensor_type;location;lat;lon;timestamp;P1;durP1;ratioP1;P2;durP2;ratioP2
49824;SDS011;35714;55.708;37.478;2023-02-19T00:01:14;12.80;;;6.70;;
49824;SDS011;35714;55.708;37.478;2023-02-19T00:03:42;9.38;;;5.07;;
49824;SDS011;35714;55.708;37.478;2023-02-19T00:06:13;11.05;;;5.80;;
49824;SDS011;35714;55.708;37.478;2023-02-19T00:08:39;11.55;;;5.43;;
49824;SDS011;35714;55.708;37.478;2023-02-19T00:11:06;7.47;;;3.50;;
49824;SDS011;35714;55.708;37.478;2023-02-19T00:13:40;9.23;;;4.53;;
49824;SDS011;35714;55.708;37.478;2023-02-19T00:16:16;12.20;;;6.60;;
49824;SDS011;35714;55.708;37.478;2023-02-19T00:18:45;9.43;;;5.72;;
49824;SDS011;35714;55.708;37.478;2023-02-19T00:21:11;7.22;;;3.28;;
49824;SDS011;35714;55.708;37.478;2023-02-19T00:23:38;10.57;;;5.20;;
49824;SDS011;35714;55.708;37.478;2023-02-19T00:26:04;10.55;;;5.20;;
49824;SDS011;35714;55.708;37.478;2023-02-19T00:28:31;13.98;;;5.93;;
49824;SDS011;35714;55.708;37.478;2023-02-19T00:33:41;12.77;;;6.28;;
49824;SDS011;35714;55.708;37.478;2023-02-19T00:36:07;12.75;;;6.60;;
49824;SDS011;35714;55.708;37.478;2023-02-19T00:38:36;13.65;;;6.90;;
49824;SDS011;35714;55.708;37.478;2023-02-19T00:41:03;9.05;;;4.75;;
49824;SDS011;35714;55.708;37.478;2023-02-19T00:43:49;11.95;;;5.75;;
49824;SDS011;35714;55.708;37.478;2023-02-19T00:46:19;13.88;;;6.75;;
49824;SDS011;35714;55.708;37.478;2023-02-19T00:49:05;14.45;;;6.65;;
49824;SDS011;35714;55.708;37.478;2023-02-19T00:51:33;14.10;;;6.70;;
49824;SDS011;35714;55.708;37.478;2023-02-19T00:54:01;12.50;;;6.78;;
49824;SDS011;35714;55.708;37.478;2023-02-19T00:56:27;12.57;;;6.53;;
49824;SDS011;35714;55.708;37.478;2023-02-19T00:58:53;12.50;;;6.22;;
49824;SDS011;35714;55.708;37.478;2023-02-19T01:01:20;11.93;;;5.88;;
49824;SDS011;35714;55.708;37.478;2023-02-19T01:03:46;12.90;;;6.78;;
49824;SDS011;35714;55.708;37.478;2023-02-19T01:06:13;13.10;;;6.68;;
49824;SDS011;35714;55.708;37.478;2023-02-19T01:08:40;12.60;;;7.05;;
49824;SDS011;35714;55.708;37.478;2023-02-19T01:11:06;9.35;;;4.78;;
49824;SDS011;35714;55.708;37.478;2023-02-19T01:13:33;13.10;;;6.47;;
49824;SDS011;35714;55.708;37.478;2023-02-19T01:18:52;9.98;;;5.78;;
49824;SDS011;35714;55.708;37.478;2023-02-19T01:21:19;14.30;;;7.50;;
49824;SDS011;35714;55.708;37.478;2023-02-19T01:23:46;14.63;;;7.45;;
49824;SDS011;35714;55.708;37.478;2023-02-19T01:26:17;14.13;;;6.57;;
49824;SDS011;35714;55.708;37.478;2023-02-19T01:28:46;16.30;;;8.73;;
49824;SDS011;35714;55.708;37.478;2023-02-19T01:31:13;13.38;;;6.90;;
49824;SDS011;35714;55.708;37.478;2023-02-19T01:33:48;16.30;;;7.40;;
49824;SDS011;35714;55.708;37.478;2023-02-19T01:36:16;18.75;;;9.43;;
49824;SDS011;35714;55.708;37.478;2023-02-19T01:38:42;14.55;;;7.57;;
49824;SDS011;35714;55.708;37.478;2023-02-19T01:41:09;17.55;;;9.10;;
49824;SDS011;35714;55.708;37.478;2023-02-19T01:46:30;14.55;;;6.05;;
49824;SDS011;35714;55.708;37.478;2023-02-19T01:49:01;17.63;;;8.98;;
49824;SDS011;35714;55.708;37.478;2023-02-19T01:51:32;15.80;;;8.68;;
49824;SDS011;35714;55.708;37.478;2023-02-19T01:54:01;16.73;;;8.38;;
49824;SDS011;35714;55.708;37.478;2023-02-19T01:56:29;19.48;;;8.15;;
49824;SDS011;35714;55.708;37.478;2023-02-19T01:58:57;16.08;;;8.55;;
49824;SDS011;35714;55.708;37.478;2023-02-19T02:01:24;14.98;;;8.32;;
49824;SDS011;35714;55.708;37.478;2023-02-19T02:03:50;16.42;;;7.82;;
49824;SDS011;35714;55.708;37.478;2023-02-19T02:06:23;15.23;;;7.18;;
49824;SDS011;35714;55.708;37.478;2023-02-19T02:08:53;17.38;;;8.38;;
49824;SDS011;35714;55.708;37.478;2023-02-19T02:11:41;14.50;;;7.20;;
49824;SDS011;35714;55.708;37.478;2023-02-19T02:14:10;18.48;;;9.25;;
49824;SDS011;35714;55.708;37.478;2023-02-19T02:16:46;13.80;;;7.28;;
49824;SDS011;35714;55.708;37.478;2023-02-19T02:22:17;9.63;;;5.00;;
49824;SDS011;35714;55.708;37.478;2023-02-19T02:31:01;12.93;;;6.80;;
49824;SDS011;35714;55.708;37.478;2023-02-19T02:33:35;14.43;;;7.57;;
49824;SDS011;35714;55.708;37.478;2023-02-19T02:36:21;13.25;;;7.20;;
49824;SDS011;35714;55.708;37.478;2023-02-19T02:38:51;15.68;;;7.70;;
49824;SDS011;35714;55.708;37.478;2023-02-19T02:41:20;15.82;;;7.30;;
49824;SDS011;35714;55.708;37.478;2023-02-19T02:43:46;13.50;;;7.53;;
49824;SDS011;35714;55.708;37.478;2023-02-19T02:46:15;13.23;;;6.50;;
49824;SDS011;35714;55.708;37.478;2023-02-19T02:48:55;20.95;;;6.68;;
49824;SDS011;35714;55.708;37.478;2023-02-19T02:54:03;12.82;;;6.75;;
49824;SDS011;35714;55.708;37.478;2023-02-19T02:56:48;11.48;;;5.40;;
49824;SDS011;35714;55.708;37.478;2023-02-19T02:59:18;15.90;;;8.18;;
49824;SDS011;35714;55.708;37.478;2023-02-19T03:10:32;12.10;;;7.10;;
49824;SDS011;35714;55.708;37.478;2023-02-19T03:13:02;15.90;;;7.82;;
49824;SDS011;35714;55.708;37.478;2023-02-19T03:15:54;13.98;;;6.90;;
49824;SDS011;35714;55.708;37.478;2023-02-19T03:18:45;11.48;;;5.70;;
49824;SDS011;35714;55.708;37.478;2023-02-19T03:21:35;11.82;;;5.75;;
49824;SDS011;35714;55.708;37.478;2023-02-19T03:24:06;13.38;;;7.30;;
49824;SDS011;35714;55.708;37.478;2023-02-19T03:26:55;12.32;;;7.10;;
49824;SDS011;35714;55.708;37.478;2023-02-19T03:29:25;13.52;;;7.57;;
49824;SDS011;35714;55.708;37.478;2023-02-19T03:32:08;11.95;;;6.40;;
49824;SDS011;35714;55.708;37.478;2023-02-19T03:34:58;13.18;;;7.05;;
49824;SDS011;35714;55.708;37.478;2023-02-19T03:37:40;12.98;;;6.78;;
49824;SDS011;35714;55.708;37.478;2023-02-19T03:40:11;12.73;;;6.55;;
49824;SDS011;35714;55.708;37.478;2023-02-19T03:42:43;14.10;;;6.68;;
49824;SDS011;35714;55.708;37.478;2023-02-19T03:45:31;13.60;;;7.05;;
49824;SDS011;35714;55.708;37.478;2023-02-19T03:50:51;17.73;;;7.43;;
49824;SDS011;35714;55.708;37.478;2023-02-19T03:56:33;13.45;;;6.90;;
49824;SDS011;35714;55.708;37.478;2023-02-19T03:59:26;12.07;;;6.35;;
49824;SDS011;35714;55.708;37.478;2023-02-19T04:02:15;8.63;;;4.75;;
49824;SDS011;35714;55.708;37.478;2023-02-19T04:04:54;13.25;;;7.03;;
49824;SDS011;35714;55.708;37.478;2023-02-19T04:07:30;14.77;;;7.63;;
49824;SDS011;35714;55.708;37.478;2023-02-19T04:09:58;15.32;;;7.78;;
49824;SDS011;35714;55.708;37.478;2023-02-19T04:12:25;14.05;;;7.55;;
49824;SDS011;35714;55.708;37.478;2023-02-19T04:14:53;10.25;;;6.13;;
49824;SDS011;35714;55.708;37.478;2023-02-19T04:17:26;11.93;;;5.95;;
49824;SDS011;35714;55.708;37.478;2023-02-19T04:20:11;13.90;;;6.97;;
49824;SDS011;35714;55.708;37.478;2023-02-19T04:22:38;12.35;;;6.43;;
49824;SDS011;35714;55.708;37.478;2023-02-19T04:25:05;10.82;;;6.20;;
49824;SDS011;35714;55.708;37.478;2023-02-19T04:27:34;13.35;;;6.63;;
49824;SDS011;35714;55.708;37.478;2023-02-19T04:30:07;10.90;;;6.07;;
49824;SDS011;35714;55.708;37.478;2023-02-19T04:32:36;15.13;;;6.93;;
49824;SDS011;35714;55.708;37.478;2023-02-19T04:35:01;11.90;;;5.88;;
49824;SDS011;35714;55.708;37.478;2023-02-19T04:37:29;15.63;;;6.97;;
49824;SDS011;35714;55.708;37.478;2023-02-19T04:39:54;12.57;;;6.00;;
49824;SDS011;35714;55.708;37.478;2023-02-19T04:42:20;12.27;;;6.38;;
49824;SDS011;35714;55.708;37.478;2023-02-19T04:44:46;11.38;;;6.05;;
49824;SDS011;35714;55.708;37.478;2023-02-19T04:47:11;11.90;;;6.70;;
49824;SDS011;35714;55.708;37.478;2023-02-19T04:49:37;13.10;;;6.35;;
49824;SDS011;35714;55.708;37.478;2023-02-19T04:52:02;12.55;;;6.63;;
49824;SDS011;35714;55.708;37.478;2023-02-19T04:54:28;13.80;;;7.30;;
49824;SDS011;35714;55.708;37.478;2023-02-19T04:56:54;11.15;;;5.72;;
49824;SDS011;35714;55.708;37.478;2023-02-19T04:59:20;14.07;;;7.07;;
49824;SDS011;35714;55.708;37.478;2023-02-19T05:01:45;9.63;;;5.25;;
49824;SDS011;35714;55.708;37.478;2023-02-19T05:04:11;15.60;;;7.10;;
49824;SDS011;35714;55.708;37.478;2023-02-19T05:06:36;14.30;;;7.10;;
49824;SDS011;35714;55.708;37.478;2023-02-19T05:09:02;15.68;;;7.63;;
49824;SDS011;35714;55.708;37.478;2023-02-19T05:11:28;13.35;;;6.95;;
49824;SDS011;35714;55.708;37.478;2023-02-19T05:13:54;13.23;;;6.35;;
49824;SDS011;35714;55.708;37.478;2023-02-19T05:16:20;14.77;;;6.82;;
49824;SDS011;35714;55.708;37.478;2023-02-19T05:18:46;12.82;;;6.30;;
49824;SDS011;35714;55.708;37.478;2023-02-19T05:21:11;11.43;;;6.97;;
49824;SDS011;35714;55.708;37.478;2023-02-19T05:23:38;12.70;;;6.70;;
49824;SDS011;35714;55.708;37.478;2023-02-19T05:26:22;11.20;;;5.65;;
49824;SDS011;35714;55.708;37.478;2023-02-19T05:28:49;12.00;;;5.90;;
49824;SDS011;35714;55.708;37.478;2023-02-19T05:31:16;9.70;;;5.18;;
49824;SDS011;35714;55.708;37.478;2023-02-19T05:33:42;14.35;;;6.60;;
49824;SDS011;35714;55.708;37.478;2023-02-19T05:36:11;10.25;;;4.60;;
49824;SDS011;35714;55.708;37.478;2023-02-19T05:38:38;11.75;;;6.07;;
49824;SDS011;35714;55.708;37.478;2023-02-19T05:43:38;11.80;;;6.15;;
49824;SDS011;35714;55.708;37.478;2023-02-19T05:46:05;11.95;;;4.88;;
49824;SDS011;35714;55.708;37.478;2023-02-19T05:48:32;11.27;;;5.97;;
49824;SDS011;35714;55.708;37.478;2023-02-19T05:51:02;8.93;;;4.75;;
49824;SDS011;35714;55.708;37.478;2023-02-19T05:53:29;9.60;;;5.18;;
49824;SDS011;35714;55.708;37.478;2023-02-19T05:55:55;12.52;;;5.63;;
49824;SDS011;35714;55.708;37.478;2023-02-19T05:58:21;7.93;;;4.70;;
49824;SDS011;35714;55.708;37.478;2023-02-19T06:00:47;12.80;;;5.75;;
49824;SDS011;35714;55.708;37.478;2023-02-19T06:03:13;10.95;;;5.57;;
49824;SDS011;35714;55.708;37.478;2023-02-19T06:05:38;11.52;;;5.97;;
49824;SDS011;35714;55.708;37.478;2023-02-19T06:08:04;9.63;;;5.18;;
49824;SDS011;35714;55.708;37.478;2023-02-19T06:10:30;12.63;;;4.57;;
49824;SDS011;35714;55.708;37.478;2023-02-19T06:12:55;10.65;;;5.88;;
49824;SDS011;35714;55.708;37.478;2023-02-19T06:15:21;11.38;;;5.88;;
49824;SDS011;35714;55.708;37.478;2023-02-19T06:17:47;13.60;;;6.28;;
49824;SDS011;35714;55.708;37.478;2023-02-19T06:20:13;11.98;;;5.97;;
49824;SDS011;35714;55.708;37.478;2023-02-19T06:22:39;11.60;;;5.13;;
49824;SDS011;35714;55.708;37.478;2023-02-19T06:25:05;10.15;;;5.15;;
49824;SDS011;35714;55.708;37.478;2023-02-19T06:27:32;10.23;;;5.32;;
49824;SDS011;35714;55.708;37.478;2023-02-19T06:29:58;12.32;;;5.97;;
49824;SDS011;35714;55.708;37.478;2023-02-19T06:32:24;10.57;;;4.90;;
49824;SDS011;35714;55.708;37.478;2023-02-19T06:34:49;9.48;;;4.05;;
49824;SDS011;35714;55.708;37.478;2023-02-19T06:37:15;10.75;;;5.45;;
49824;SDS011;35714;55.708;37.478;2023-02-19T06:39:41;8.30;;;4.63;;
49824;SDS011;35714;55.708;37.478;2023-02-19T06:42:07;11.93;;;5.80;;
49824;SDS011;35714;55.708;37.478;2023-02-19T06:44:33;10.55;;;5.28;;
49824;SDS011;35714;55.708;37.478;2023-02-19T06:46:59;11.48;;;5.65;;
49824;SDS011;35714;55.708;37.478;2023-02-19T06:49:24;8.95;;;4.10;;
49824;SDS011;35714;55.708;37.478;2023-02-19T06:51:50;7.00;;;3.42;;
49824;SDS011;35714;55.708;37.478;2023-02-19T06:54:15;11.60;;;4.40;;
49824;SDS011;35714;55.708;37.478;2023-02-19T06:56:41;11.15;;;4.90;;
49824;SDS011;35714;55.708;37.478;2023-02-19T06:59:08;9.43;;;4.97;;
49824;SDS011;35714;55.708;37.478;2023-02-19T07:01:36;11.07;;;4.28;;
49824;SDS011;35714;55.708;37.478;2023-02-19T07:04:03;11.20;;;5.43;;
49824;SDS011;35714;55.708;37.478;2023-02-19T07:06:29;9.18;;;4.53;;
49824;SDS011;35714;55.708;37.478;2023-02-19T07:08:56;7.53;;;3.90;;
49824;SDS011;35714;55.708;37.478;2023-02-19T07:11:22;10.18;;;4.90;;
49824;SDS011;35714;55.708;37.478;2023-02-19T07:13:58;11.77;;;4.80;;
49824;SDS011;35714;55.708;37.478;2023-02-19T07:16:26;9.52;;;4.32;;
49824;SDS011;35714;55.708;37.478;2023-02-19T07:18:54;9.63;;;4.75;;
49824;SDS011;35714;55.708;37.478;2023-02-19T07:21:22;10.50;;;4.53;;
49824;SDS011;35714;55.708;37.478;2023-02-19T07:23:48;11.13;;;4.47;;
49824;SDS011;35714;55.708;37.478;2023-02-19T07:26:14;8.13;;;4.57;;
49824;SDS011;35714;55.708;37.478;2023-02-19T07:28:42;11.32;;;4.47;;
49824;SDS011;35714;55.708;37.478;2023-02-19T07:31:08;7.85;;;4.18;;
49824;SDS011;35714;55.708;37.478;2023-02-19T07:33:35;8.55;;;4.50;;
49824;SDS011;35714;55.708;37.478;2023-02-19T07:36:01;8.93;;;4.82;;
49824;SDS011;35714;55.708;37.478;2023-02-19T07:38:27;9.70;;;4.47;;
49824;SDS011;35714;55.708;37.478;2023-02-19T07:40:54;10.20;;;4.93;;
49824;SDS011;35714;55.708;37.478;2023-02-19T07:43:21;11.85;;;5.38;;
49824;SDS011;35714;55.708;37.478;2023-02-19T07:45:48;10.85;;;4.72;;
49824;SDS011;35714;55.708;37.478;2023-02-19T07:48:15;9.77;;;4.93;;
49824;SDS011;35714;55.708;37.478;2023-02-19T07:50:41;9.45;;;4.00;;
49824;SDS011;35714;55.708;37.478;2023-02-19T07:53:06;10.15;;;4.47;;
49824;SDS011;35714;55.708;37.478;2023-02-19T07:55:32;9.38;;;4.32;;
49824;SDS011;35714;55.708;37.478;2023-02-19T07:57:58;7.85;;;3.70;;
49824;SDS011;35714;55.708;37.478;2023-02-19T08:00:25;9.98;;;4.88;;
49824;SDS011;35714;55.708;37.478;2023-02-19T08:02:51;9.43;;;4.20;;
49824;SDS011;35714;55.708;37.478;2023-02-19T08:05:24;8.32;;;4.22;;
49824;SDS011;35714;55.708;37.478;2023-02-19T08:07:55;11.25;;;6.03;;
49824;SDS011;35714;55.708;37.478;2023-02-19T08:10:21;8.10;;;4.75;;
49824;SDS011;35714;55.708;37.478;2023-02-19T08:13:08;10.00;;;5.20;;
49824;SDS011;35714;55.708;37.478;2023-02-19T08:18:29;8.30;;;3.63;;
49824;SDS011;35714;55.708;37.478;2023-02-19T08:20:57;9.35;;;4.15;;
49824;SDS011;35714;55.708;37.478;2023-02-19T08:23:24;8.45;;;3.53;;
49824;SDS011;35714;55.708;37.478;2023-02-19T08:25:50;12.90;;;5.82;;
49824;SDS011;35714;55.708;37.478;2023-02-19T08:28:18;11.57;;;4.82;;
49824;SDS011;35714;55.708;37.478;2023-02-19T08:30:44;7.70;;;4.03;;
49824;SDS011;35714;55.708;37.478;2023-02-19T08:33:12;9.98;;;4.40;;
49824;SDS011;35714;55.708;37.478;2023-02-19T08:35:40;10.80;;;4.95;;
49824;SDS011;35714;55.708;37.478;2023-02-19T08:38:07;9.43;;;4.78;;
49824;SDS011;35714;55.708;37.478;2023-02-19T08:40:35;11.23;;;5.35;;
49824;SDS011;35714;55.708;37.478;2023-02-19T08:43:05;8.18;;;4.30;;
49824;SDS011;35714;55.708;37.478;2023-02-19T08:45:33;10.60;;;4.90;;
49824;SDS011;35714;55.708;37.478;2023-02-19T08:47:59;11.77;;;5.70;;
49824;SDS011;35714;55.708;37.478;2023-02-19T08:50:24;6.40;;;3.45;;
49824;SDS011;35714;55.708;37.478;2023-02-19T08:52:51;8.77;;;4.18;;
49824;SDS011;35714;55.708;37.478;2023-02-19T08:55:16;10.77;;;4.25;;
49824;SDS011;35714;55.708;37.478;2023-02-19T08:57:42;9.18;;;4.35;;
49824;SDS011;35714;55.708;37.478;2023-02-19T09:00:08;10.90;;;5.30;;
49824;SDS011;35714;55.708;37.478;2023-02-19T09:02:34;10.88;;;5.20;;
49824;SDS011;35714;55.708;37.478;2023-02-19T09:05:00;10.10;;;5.60;;
49824;SDS011;35714;55.708;37.478;2023-02-19T09:07:26;11.15;;;5.13;;
49824;SDS011;35714;55.708;37.478;2023-02-19T09:09:52;11.18;;;5.15;;
49824;SDS011;35714;55.708;37.478;2023-02-19T09:12:18;9.65;;;5.20;;
49824;SDS011;35714;55.708;37.478;2023-02-19T09:14:44;9.68;;;4.13;;
49824;SDS011;35714;55.708;37.478;2023-02-19T09:17:10;8.30;;;4.15;;
49824;SDS011;35714;55.708;37.478;2023-02-19T09:19:36;8.57;;;3.88;;
49824;SDS011;35714;55.708;37.478;2023-02-19T09:22:02;8.57;;;4.15;;
49824;SDS011;35714;55.708;37.478;2023-02-19T09:24:29;10.10;;;4.97;;
49824;SDS011;35714;55.708;37.478;2023-02-19T09:26:55;11.95;;;4.95;;
49824;SDS011;35714;55.708;37.478;2023-02-19T09:29:21;10.35;;;4.80;;
49824;SDS011;35714;55.708;37.478;2023-02-19T09:31:49;9.35;;;4.53;;
49824;SDS011;35714;55.708;37.478;2023-02-19T09:34:15;11.93;;;5.28;;
49824;SDS011;35714;55.708;37.478;2023-02-19T09:36:41;9.85;;;4.85;;
49824;SDS011;35714;55.708;37.478;2023-02-19T09:39:07;9.65;;;5.20;;
49824;SDS011;35714;55.708;37.478;2023-02-19T09:41:45;10.63;;;5.15;;
49824;SDS011;35714;55.708;37.478;2023-02-19T09:44:15;8.38;;;4.68;;
49824;SDS011;35714;55.708;37.478;2023-02-19T09:46:48;8.55;;;4.18;;
49824;SDS011;35714;55.708;37.478;2023-02-19T09:49:17;11.32;;;5.88;;
49824;SDS011;35714;55.708;37.478;2023-02-19T09:51:48;10.55;;;5.13;;
49824;SDS011;35714;55.708;37.478;2023-02-19T09:54:24;9.85;;;5.10;;
49824;SDS011;35714;55.708;37.478;2023-02-19T09:56:52;11.68;;;5.93;;
49824;SDS011;35714;55.708;37.478;2023-02-19T09:59:24;11.88;;;5.68;;
49824;SDS011;35714;55.708;37.478;2023-02-19T10:02:06;10.18;;;4.70;;
49824;SDS011;35714;55.708;37.478;2023-02-19T10:04:39;8.30;;;4.32;;
49824;SDS011;35714;55.708;37.478;2023-02-19T10:07:17;7.25;;;3.97;;
49824;SDS011;35714;55.708;37.478;2023-02-19T10:09:58;9.95;;;4.85;;
49824;SDS011;35714;55.708;37.478;2023-02-19T10:12:28;10.10;;;4.45;;
49824;SDS011;35714;55.708;37.478;2023-02-19T10:14:59;12.73;;;5.57;;
49824;SDS011;35714;55.708;37.478;2023-02-19T10:17:32;11.38;;;5.57;;
49824;SDS011;35714;55.708;37.478;2023-02-19T10:19:59;11.45;;;4.60;;
49824;SDS011;35714;55.708;37.478;2023-02-19T10:22:32;10.55;;;5.47;;
49824;SDS011;35714;55.708;37.478;2023-02-19T10:25:02;9.38;;;4.80;;
49824;SDS011;35714;55.708;37.478;2023-02-19T10:27:29;8.65;;;4.35;;
49824;SDS011;35714;55.708;37.478;2023-02-19T10:29:55;9.70;;;5.00;;
49824;SDS011;35714;55.708;37.478;2023-02-19T10:32:23;11.20;;;5.63;;
49824;SDS011;35714;55.708;37.478;2023-02-19T10:35:07;7.47;;;3.83;;
49824;SDS011;35714;55.708;37.478;2023-02-19T10:37:34;12.68;;;5.75;;
49824;SDS011;35714;55.708;37.478;2023-02-19T10:40:10;9.82;;;4.90;;
49824;SDS011;35714;55.708;37.478;2023-02-19T10:42:42;10.77;;;4.78;;
49824;SDS011;35714;55.708;37.478;2023-02-19T10:45:15;12.23;;;5.88;;
49824;SDS011;35714;55.708;37.478;2023-02-19T10:47:49;10.00;;;4.82;;
49824;SDS011;35714;55.708;37.478;2023-02-19T10:50:33;10.13;;;5.63;;
49824;SDS011;35714;55.708;37.478;2023-02-19T10:53:08;9.40;;;4.38;;
49824;SDS011;35714;55.708;37.478;2023-02-19T10:55:47;10.52;;;4.63;;
49824;SDS011;35714;55.708;37.478;2023-02-19T10:58:23;12.93;;;4.72;;
49824;SDS011;35714;55.708;37.478;2023-02-19T11:01:08;13.73;;;5.78;;
49824;SDS011;35714;55.708;37.478;2023-02-19T11:03:38;8.95;;;4.43;;
49824;SDS011;35714;55.708;37.478;2023-02-19T11:06:04;10.70;;;5.18;;
49824;SDS011;35714;55.708;37.478;2023-02-19T11:08:48;8.85;;;5.05;;
49824;SDS011;35714;55.708;37.478;2023-02-19T11:11:27;10.05;;;4.75;;
49824;SDS011;35714;55.708;37.478;2023-02-19T11:13:54;14.93;;;5.35;;
49824;SDS011;35714;55.708;37.478;2023-02-19T11:16:35;7.95;;;4.60;;
49824;SDS011;35714;55.708;37.478;2023-02-19T11:19:03;9.48;;;5.18;;
49824;SDS011;35714;55.708;37.478;2023-02-19T11:21:29;10.68;;;5.05;;
49824;SDS011;35714;55.708;37.478;2023-02-19T11:23:59;7.57;;;3.60;;
49824;SDS011;35714;55.708;37.478;2023-02-19T11:26:30;9.05;;;4.35;;
49824;SDS011;35714;55.708;37.478;2023-02-19T11:29:00;9.32;;;5.00;;
49824;SDS011;35714;55.708;37.478;2023-02-19T11:31:35;8.40;;;4.22;;
49824;SDS011;35714;55.708;37.478;2023-02-19T11:37:11;11.98;;;5.03;;
49824;SDS011;35714;55.708;37.478;2023-02-19T11:39:37;9.60;;;4.95;;
49824;SDS011;35714;55.708;37.478;2023-02-19T11:54:12;10.05;;;4.88;;
49824;SDS011;35714;55.708;37.478;2023-02-19T11:56:42;9.10;;;4.57;;
49824;SDS011;35714;55.708;37.478;2023-02-19T12:07:26;9.98;;;4.82;;
49824;SDS011;35714;55.708;37.478;2023-02-19T12:24:26;10.35;;;4.93;;
49824;SDS011;35714;55.708;37.478;2023-02-19T12:30:14;10.85;;;5.38;;
49824;SDS011;35714;55.708;37.478;2023-02-19T12:38:20;10.80;;;5.70;;
49824;SDS011;35714;55.708;37.478;2023-02-19T12:40:58;8.75;;;4.05;;
49824;SDS011;35714;55.708;37.478;2023-02-19T12:43:55;9.55;;;4.90;;
49824;SDS011;35714;55.708;37.478;2023-02-19T12:46:27;11.68;;;5.88;;
49824;SDS011;35714;55.708;37.478;2023-02-19T12:49:00;13.25;;;6.35;;
49824;SDS011;35714;55.708;37.478;2023-02-19T12:57:01;12.60;;;6.30;;
49824;SDS011;35714;55.708;37.478;2023-02-19T12:59:36;11.00;;;5.75;;
49824;SDS011;35714;55.708;37.478;2023-02-19T13:02:21;12.32;;;5.70;;
49824;SDS011;35714;55.708;37.478;2023-02-19T13:05:05;13.30;;;6.07;;
49824;SDS011;35714;55.708;37.478;2023-02-19T13:07:52;14.85;;;6.50;;
49824;SDS011;35714;55.708;37.478;2023-02-19T13:13:35;11.80;;;6.07;;
49824;SDS011;35714;55.708;37.478;2023-02-19T13:16:07;13.68;;;6.82;;
49824;SDS011;35714;55.708;37.478;2023-02-19T13:18:46;13.48;;;6.45;;
49824;SDS011;35714;55.708;37.478;2023-02-19T13:21:15;14.70;;;7.22;;
49824;SDS011;35714;55.708;37.478;2023-02-19T13:24:04;12.55;;;6.13;;
49824;SDS011;35714;55.708;37.478;2023-02-19T13:35:01;13.75;;;6.78;;
49824;SDS011;35714;55.708;37.478;2023-02-19T13:37:39;14.82;;;7.30;;
49824;SDS011;35714;55.708;37.478;2023-02-19T13:40:16;11.40;;;6.00;;
49824;SDS011;35714;55.708;37.478;2023-02-19T13:42:54;13.63;;;6.03;;
49824;SDS011;35714;55.708;37.478;2023-02-19T13:45:24;12.40;;;6.85;;
49824;SDS011;35714;55.708;37.478;2023-02-19T13:47:58;11.02;;;5.75;;
49824;SDS011;35714;55.708;37.478;2023-02-19T13:50:31;13.48;;;7.15;;
49824;SDS011;35714;55.708;37.478;2023-02-19T13:52:59;11.75;;;6.50;;
49824;SDS011;35714;55.708;37.478;2023-02-19T14:00:58;12.55;;;6.47;;
49824;SDS011;35714;55.708;37.478;2023-02-19T14:03:26;12.55;;;6.03;;
49824;SDS011;35714;55.708;37.478;2023-02-19T14:06:03;7.38;;;4.07;;
49824;SDS011;35714;55.708;37.478;2023-02-19T14:14:24;16.45;;;6.90;;
49824;SDS011;35714;55.708;37.478;2023-02-19T14:17:00;13.55;;;6.60;;
49824;SDS011;35714;55.708;37.478;2023-02-19T14:27:51;14.82;;;6.93;;
49824;SDS011;35714;55.708;37.478;2023-02-19T14:30:19;14.20;;;6.88;;
49824;SDS011;35714;55.708;37.478;2023-02-19T14:32:48;14.77;;;7.82;;
49824;SDS011;35714;55.708;37.478;2023-02-19T14:35:21;15.00;;;6.75;;
49824;SDS011;35714;55.708;37.478;2023-02-19T14:37:52;12.98;;;6.95;;
49824;SDS011;35714;55.708;37.478;2023-02-19T14:40:22;15.02;;;6.70;;
49824;SDS011;35714;55.708;37.478;2023-02-19T14:42:51;14.88;;;6.90;;
49824;SDS011;35714;55.708;37.478;2023-02-19T14:45:20;12.88;;;6.78;;
49824;SDS011;35714;55.708;37.478;2023-02-19T14:47:46;12.63;;;6.60;;
49824;SDS011;35714;55.708;37.478;2023-02-19T14:50:16;12.40;;;6.72;;
49824;SDS011;35714;55.708;37.478;2023-02-19T14:52:56;13.57;;;7.65;;
49824;SDS011;35714;55.708;37.478;2023-02-19T14:55:29;12.30;;;6.30;;
49824;SDS011;35714;55.708;37.478;2023-02-19T14:57:58;14.73;;;6.97;;
49824;SDS011;35714;55.708;37.478;2023-02-19T15:00:45;15.35;;;7.63;;
49824;SDS011;35714;55.708;37.478;2023-02-19T15:03:24;14.82;;;7.90;;
49824;SDS011;35714;55.708;37.478;2023-02-19T15:05:57;19.40;;;7.85;;
49824;SDS011;35714;55.708;37.478;2023-02-19T15:08:38;14.88;;;7.15;;
49824;SDS011;35714;55.708;37.478;2023-02-19T15:11:09;15.95;;;8.13;;
49824;SDS011;35714;55.708;37.478;2023-02-19T15:13:39;15.82;;;7.90;;
49824;SDS011;35714;55.708;37.478;2023-02-19T15:16:18;16.92;;;8.25;;
49824;SDS011;35714;55.708;37.478;2023-02-19T15:18:46;16.63;;;7.43;;
49824;SDS011;35714;55.708;37.478;2023-02-19T15:21:19;13.48;;;7.00;;
49824;SDS011;35714;55.708;37.478;2023-02-19T15:23:48;15.90;;;7.55;;
49824;SDS011;35714;55.708;37.478;2023-02-19T15:26:35;18.58;;;8.43;;
49824;SDS011;35714;55.708;37.478;2023-02-19T15:29:04;14.65;;;6.72;;
49824;SDS011;35714;55.708;37.478;2023-02-19T15:31:47;16.02;;;7.55;;
49824;SDS011;35714;55.708;37.478;2023-02-19T15:34:16;16.92;;;7.65;;
49824;SDS011;35714;55.708;37.478;2023-02-19T15:36:44;15.68;;;8.68;;
49824;SDS011;35714;55.708;37.478;2023-02-19T15:41:43;17.85;;;7.72;;
49824;SDS011;35714;55.708;37.478;2023-02-19T15:44:23;15.20;;;7.30;;
49824;SDS011;35714;55.708;37.478;2023-02-19T15:47:04;15.57;;;7.32;;
49824;SDS011;35714;55.708;37.478;2023-02-19T15:49:42;16.42;;;7.65;;
49824;SDS011;35714;55.708;37.478;2023-02-19T15:52:22;14.63;;;7.22;;
49824;SDS011;35714;55.708;37.478;2023-02-19T15:57:42;14.35;;;7.65;;
49824;SDS011;35714;55.708;37.478;2023-02-19T16:02:48;15.80;;;6.88;;
49824;SDS011;35714;55.708;37.478;2023-02-19T16:05:22;18.25;;;7.70;;
49824;SDS011;35714;55.708;37.478;2023-02-19T16:10:56;18.35;;;7.32;;
49824;SDS011;35714;55.708;37.478;2023-02-19T16:13:24;15.43;;;7.93;;
49824;SDS011;35714;55.708;37.478;2023-02-19T16:15:57;14.00;;;7.55;;
49824;SDS011;35714;55.708;37.478;2023-02-19T16:18:24;12.98;;;6.95;;
49824;SDS011;35714;55.708;37.478;2023-02-19T16:20:50;14.70;;;7.50;;
49824;SDS011;35714;55.708;37.478;2023-02-19T16:23:16;15.80;;;7.85;;
49824;SDS011;35714;55.708;37.478;2023-02-19T16:25:44;13.25;;;7.57;;
49824;SDS011;35714;55.708;37.478;2023-02-19T16:28:12;16.50;;;7.88;;
49824;SDS011;35714;55.708;37.478;2023-02-19T16:30:44;13.77;;;7.28;;
49824;SDS011;35714;55.708;37.478;2023-02-19T16:33:20;13.52;;;6.05;;
49824;SDS011;35714;55.708;37.478;2023-02-19T16:35:52;13.93;;;6.70;;
49824;SDS011;35714;55.708;37.478;2023-02-19T16:38:18;13.95;;;7.75;;
49824;SDS011;35714;55.708;37.478;2023-02-19T16:45:50;17.70;;;8.57;;
49824;SDS011;35714;55.708;37.478;2023-02-19T16:48:15;17.05;;;7.93;;
49824;SDS011;35714;55.708;37.478;2023-02-19T16:50:43;14.20;;;7.43;;
49824;SDS011;35714;55.708;37.478;2023-02-19T16:53:14;15.73;;;7.85;;
49824;SDS011;35714;55.708;37.478;2023-02-19T16:55:43;16.10;;;7.30;;
49824;SDS011;35714;55.708;37.478;2023-02-19T16:58:09;16.95;;;8.85;;
49824;SDS011;35714;55.708;37.478;2023-02-19T17:00:34;14.65;;;8.02;;
49824;SDS011;35714;55.708;37.478;2023-02-19T17:03:01;18.38;;;8.30;;